sensor_id;sensor_type;location;lat;lon;timestamp;P1;durP1;ratioP1;P2;durP2;ratioP2
39994;SDS011;25686;51.908;10.418;2022-07-17T00:00:55;5.65;;;1.23;;
39994;SDS011;25686;51.908;10.418;2022-07-17T00:02:56;7.53;;;1.70;;
39994;SDS011;25686;51.908;10.418;2022-07-17T00:04:57;6.55;;;1.15;;
39994;SDS011;25686;51.908;10.418;2022-07-17T00:06:58;6.28;;;1.40;;
39994;SDS011;25686;51.908;10.418;2022-07-17T00:08:59;5.63;;;1.20;;
39994;SDS011;25686;51.908;10.418;2022-07-17T00:11:00;6.18;;;1.50;;
39994;SDS011;25686;51.908;10.418;2022-07-17T00:13:01;7.78;;;1.65;;
39994;SDS011;25686;51.908;10.418;2022-07-17T00:15:02;6.47;;;1.60;;
39994;SDS011;25686;51.908;10.418;2022-07-17T00:17:03;7.65;;;1.40;;
39994;SDS011;25686;51.908;10.418;2022-07-17T00:19:05;10.18;;;1.67;;
39994;SDS011;25686;51.908;10.418;2022-07-17T00:21:06;9.13;;;1.67;;
39994;SDS011;25686;51.908;10.418;2022-07-17T00:23:07;7.75;;;1.65;;
39994;SDS011;25686;51.908;10.418;2022-07-17T00:25:08;6.45;;;1.85;;
39994;SDS011;25686;51.908;10.418;2022-07-17T00:27:10;10.38;;;1.63;;
39994;SDS011;25686;51.908;10.418;2022-07-17T00:29:11;5.32;;;1.30;;
39994;SDS011;25686;51.908;10.418;2022-07-17T00:31:11;5.45;;;1.38;;
39994;SDS011;25686;51.908;10.418;2022-07-17T00:33:12;9.15;;;1.55;;
39994;SDS011;25686;51.908;10.418;2022-07-17T00:35:13;6.18;;;1.40;;
39994;SDS011;25686;51.908;10.418;2022-07-17T00:37:14;14.20;;;1.63;;
39994;SDS011;25686;51.908;10.418;2022-07-17T00:39:15;10.10;;;1.80;;
39994;SDS011;25686;51.908;10.418;2022-07-17T00:41:16;8.73;;;1.30;;
39994;SDS011;25686;51.908;10.418;2022-07-17T00:43:17;8.20;;;1.60;;
39994;SDS011;25686;51.908;10.418;2022-07-17T00:45:18;6.70;;;1.60;;
39994;SDS011;25686;51.908;10.418;2022-07-17T00:47:20;9.57;;;1.80;;
39994;SDS011;25686;51.908;10.418;2022-07-17T00:49:21;8.40;;;1.42;;
39994;SDS011;25686;51.908;10.418;2022-07-17T00:51:22;9.05;;;1.70;;
39994;SDS011;25686;51.908;10.418;2022-07-17T00:53:23;6.00;;;1.38;;
39994;SDS011;25686;51.908;10.418;2022-07-17T00:55:24;5.10;;;1.17;;
39994;SDS011;25686;51.908;10.418;2022-07-17T00:57:25;5.68;;;1.60;;
39994;SDS011;25686;51.908;10.418;2022-07-17T00:59:28;6.63;;;1.60;;
39994;SDS011;25686;51.908;10.418;2022-07-17T01:01:30;7.28;;;1.65;;
39994;SDS011;25686;51.908;10.418;2022-07-17T01:03:31;5.47;;;1.25;;
39994;SDS011;25686;51.908;10.418;2022-07-17T01:05:32;7.90;;;1.60;;
39994;SDS011;25686;51.908;10.418;2022-07-17T01:07:33;3.97;;;1.42;;
39994;SDS011;25686;51.908;10.418;2022-07-17T01:09:34;8.60;;;1.83;;
39994;SDS011;25686;51.908;10.418;2022-07-17T01:11:35;7.72;;;1.73;;
39994;SDS011;25686;51.908;10.418;2022-07-17T01:13:36;6.40;;;1.50;;
39994;SDS011;25686;51.908;10.418;2022-07-17T01:15:38;5.15;;;1.40;;
39994;SDS011;25686;51.908;10.418;2022-07-17T01:17:39;8.25;;;1.20;;
39994;SDS011;25686;51.908;10.418;2022-07-17T01:19:40;4.25;;;1.30;;
39994;SDS011;25686;51.908;10.418;2022-07-17T01:21:41;7.25;;;1.80;;
39994;SDS011;25686;51.908;10.418;2022-07-17T01:23:43;6.53;;;1.48;;
39994;SDS011;25686;51.908;10.418;2022-07-17T01:25:44;8.20;;;1.30;;
39994;SDS011;25686;51.908;10.418;2022-07-17T01:27:45;5.82;;;1.90;;
39994;SDS011;25686;51.908;10.418;2022-07-17T01:29:45;11.93;;;1.90;;
39994;SDS011;25686;51.908;10.418;2022-07-17T01:31:46;4.47;;;1.65;;
39994;SDS011;25686;51.908;10.418;2022-07-17T01:33:48;9.25;;;2.05;;
39994;SDS011;25686;51.908;10.418;2022-07-17T01:35:49;7.43;;;1.70;;
39994;SDS011;25686;51.908;10.418;2022-07-17T01:37:50;9.75;;;2.00;;
39994;SDS011;25686;51.908;10.418;2022-07-17T01:39:51;7.57;;;1.38;;
39994;SDS011;25686;51.908;10.418;2022-07-17T01:41:52;7.88;;;1.52;;
39994;SDS011;25686;51.908;10.418;2022-07-17T01:43:53;9.48;;;1.33;;
39994;SDS011;25686;51.908;10.418;2022-07-17T01:45:54;7.68;;;1.50;;
39994;SDS011;25686;51.908;10.418;2022-07-17T01:47:55;6.10;;;1.48;;
39994;SDS011;25686;51.908;10.418;2022-07-17T01:49:56;7.50;;;1.63;;
39994;SDS011;25686;51.908;10.418;2022-07-17T01:51:57;9.13;;;1.40;;
39994;SDS011;25686;51.908;10.418;2022-07-17T01:54:00;7.05;;;1.30;;
39994;SDS011;25686;51.908;10.418;2022-07-17T01:56:01;7.68;;;1.52;;
39994;SDS011;25686;51.908;10.418;2022-07-17T01:58:04;6.47;;;1.67;;
39994;SDS011;25686;51.908;10.418;2022-07-17T02:00:06;7.38;;;1.55;;
39994;SDS011;25686;51.908;10.418;2022-07-17T02:02:07;9.05;;;1.55;;
39994;SDS011;25686;51.908;10.418;2022-07-17T02:04:08;4.57;;;1.70;;
39994;SDS011;25686;51.908;10.418;2022-07-17T02:06:09;7.22;;;1.80;;
39994;SDS011;25686;51.908;10.418;2022-07-17T02:08:10;7.10;;;1.92;;
39994;SDS011;25686;51.908;10.418;2022-07-17T02:10:11;8.52;;;1.65;;
39994;SDS011;25686;51.908;10.418;2022-07-17T02:12:13;9.82;;;1.92;;
39994;SDS011;25686;51.908;10.418;2022-07-17T02:14:15;5.35;;;1.42;;
39994;SDS011;25686;51.908;10.418;2022-07-17T02:16:15;9.23;;;1.77;;
39994;SDS011;25686;51.908;10.418;2022-07-17T02:18:16;6.32;;;1.80;;
39994;SDS011;25686;51.908;10.418;2022-07-17T02:20:17;4.97;;;1.60;;
39994;SDS011;25686;51.908;10.418;2022-07-17T02:22:18;7.95;;;1.50;;
39994;SDS011;25686;51.908;10.418;2022-07-17T02:24:19;7.80;;;1.90;;
39994;SDS011;25686;51.908;10.418;2022-07-17T02:26:20;6.78;;;1.40;;
39994;SDS011;25686;51.908;10.418;2022-07-17T02:28:21;9.50;;;1.70;;
39994;SDS011;25686;51.908;10.418;2022-07-17T02:30:22;6.97;;;1.60;;
39994;SDS011;25686;51.908;10.418;2022-07-17T02:32:23;8.23;;;1.58;;
39994;SDS011;25686;51.908;10.418;2022-07-17T02:34:24;7.00;;;1.70;;
39994;SDS011;25686;51.908;10.418;2022-07-17T02:36:25;6.15;;;1.80;;
39994;SDS011;25686;51.908;10.418;2022-07-17T02:38:26;7.18;;;1.75;;
39994;SDS011;25686;51.908;10.418;2022-07-17T02:40:27;6.20;;;1.50;;
39994;SDS011;25686;51.908;10.418;2022-07-17T02:42:28;8.40;;;1.75;;
39994;SDS011;25686;51.908;10.418;2022-07-17T02:44:29;7.93;;;1.52;;
39994;SDS011;25686;51.908;10.418;2022-07-17T02:46:30;10.68;;;1.90;;
39994;SDS011;25686;51.908;10.418;2022-07-17T02:48:31;8.90;;;1.55;;
39994;SDS011;25686;51.908;10.418;2022-07-17T02:50:32;8.75;;;1.77;;
39994;SDS011;25686;51.908;10.418;2022-07-17T02:52:33;6.93;;;1.58;;
39994;SDS011;25686;51.908;10.418;2022-07-17T02:54:34;8.52;;;1.63;;
39994;SDS011;25686;51.908;10.418;2022-07-17T02:56:35;9.35;;;1.50;;
39994;SDS011;25686;51.908;10.418;2022-07-17T02:58:36;5.63;;;1.63;;
39994;SDS011;25686;51.908;10.418;2022-07-17T03:00:37;7.60;;;1.67;;
39994;SDS011;25686;51.908;10.418;2022-07-17T03:02:38;10.18;;;2.03;;
39994;SDS011;25686;51.908;10.418;2022-07-17T03:04:38;9.63;;;1.70;;
39994;SDS011;25686;51.908;10.418;2022-07-17T03:06:39;7.30;;;1.77;;
39994;SDS011;25686;51.908;10.418;2022-07-17T03:08:40;4.75;;;1.73;;
39994;SDS011;25686;51.908;10.418;2022-07-17T03:10:41;11.38;;;1.77;;
39994;SDS011;25686;51.908;10.418;2022-07-17T03:12:42;10.98;;;1.83;;
39994;SDS011;25686;51.908;10.418;2022-07-17T03:14:43;7.35;;;1.65;;
39994;SDS011;25686;51.908;10.418;2022-07-17T03:16:44;8.15;;;1.73;;
39994;SDS011;25686;51.908;10.418;2022-07-17T03:18:45;9.80;;;1.80;;
39994;SDS011;25686;51.908;10.418;2022-07-17T03:20:46;16.10;;;2.03;;
39994;SDS011;25686;51.908;10.418;2022-07-17T03:22:47;7.72;;;2.17;;
39994;SDS011;25686;51.908;10.418;2022-07-17T03:24:48;7.72;;;1.88;;
39994;SDS011;25686;51.908;10.418;2022-07-17T03:26:49;9.23;;;2.10;;
39994;SDS011;25686;51.908;10.418;2022-07-17T03:28:50;7.28;;;1.75;;
39994;SDS011;25686;51.908;10.418;2022-07-17T03:30:51;6.03;;;1.73;;
39994;SDS011;25686;51.908;10.418;2022-07-17T03:32:52;13.20;;;2.28;;
39994;SDS011;25686;51.908;10.418;2022-07-17T03:34:53;6.43;;;1.70;;
39994;SDS011;25686;51.908;10.418;2022-07-17T03:36:54;9.57;;;2.10;;
39994;SDS011;25686;51.908;10.418;2022-07-17T03:38:55;9.00;;;2.03;;
39994;SDS011;25686;51.908;10.418;2022-07-17T03:40:56;8.18;;;2.00;;
39994;SDS011;25686;51.908;10.418;2022-07-17T03:42:56;8.88;;;1.92;;
39994;SDS011;25686;51.908;10.418;2022-07-17T03:44:57;10.00;;;2.40;;
39994;SDS011;25686;51.908;10.418;2022-07-17T03:46:58;7.65;;;1.63;;
39994;SDS011;25686;51.908;10.418;2022-07-17T03:48:59;12.27;;;1.80;;
39994;SDS011;25686;51.908;10.418;2022-07-17T03:51:00;11.75;;;1.98;;
39994;SDS011;25686;51.908;10.418;2022-07-17T03:53:01;7.60;;;1.65;;
39994;SDS011;25686;51.908;10.418;2022-07-17T03:55:02;6.00;;;1.77;;
39994;SDS011;25686;51.908;10.418;2022-07-17T03:57:03;8.07;;;2.13;;
39994;SDS011;25686;51.908;10.418;2022-07-17T03:59:04;6.95;;;1.60;;
39994;SDS011;25686;51.908;10.418;2022-07-17T04:01:05;4.30;;;1.70;;
39994;SDS011;25686;51.908;10.418;2022-07-17T04:03:06;9.07;;;2.00;;
39994;SDS011;25686;51.908;10.418;2022-07-17T04:05:07;5.88;;;1.60;;
39994;SDS011;25686;51.908;10.418;2022-07-17T04:07:09;5.80;;;1.95;;
39994;SDS011;25686;51.908;10.418;2022-07-17T04:09:26;9.30;;;2.47;;
39994;SDS011;25686;51.908;10.418;2022-07-17T04:11:27;7.25;;;2.10;;
39994;SDS011;25686;51.908;10.418;2022-07-17T04:13:28;7.03;;;1.67;;
39994;SDS011;25686;51.908;10.418;2022-07-17T04:15:29;7.78;;;1.45;;
39994;SDS011;25686;51.908;10.418;2022-07-17T04:17:48;9.98;;;1.77;;
39994;SDS011;25686;51.908;10.418;2022-07-17T04:19:50;6.15;;;1.70;;
39994;SDS011;25686;51.908;10.418;2022-07-17T04:21:51;6.25;;;1.70;;
39994;SDS011;25686;51.908;10.418;2022-07-17T04:23:52;7.97;;;1.88;;
39994;SDS011;25686;51.908;10.418;2022-07-17T04:25:53;10.55;;;1.70;;
39994;SDS011;25686;51.908;10.418;2022-07-17T04:27:54;8.57;;;1.80;;
39994;SDS011;25686;51.908;10.418;2022-07-17T04:29:55;7.18;;;1.85;;
39994;SDS011;25686;51.908;10.418;2022-07-17T04:31:56;9.90;;;1.80;;
39994;SDS011;25686;51.908;10.418;2022-07-17T04:33:57;7.25;;;1.63;;
39994;SDS011;25686;51.908;10.418;2022-07-17T04:35:58;10.52;;;2.22;;
39994;SDS011;25686;51.908;10.418;2022-07-17T04:37:59;6.82;;;1.63;;
39994;SDS011;25686;51.908;10.418;2022-07-17T04:40:00;6.40;;;1.58;;
39994;SDS011;25686;51.908;10.418;2022-07-17T04:42:01;7.57;;;1.52;;
39994;SDS011;25686;51.908;10.418;2022-07-17T04:44:02;9.65;;;1.70;;
39994;SDS011;25686;51.908;10.418;2022-07-17T04:46:03;4.35;;;1.70;;
39994;SDS011;25686;51.908;10.418;2022-07-17T04:48:04;6.93;;;1.88;;
39994;SDS011;25686;51.908;10.418;2022-07-17T04:50:06;4.80;;;1.30;;
39994;SDS011;25686;51.908;10.418;2022-07-17T04:52:07;6.25;;;1.80;;
39994;SDS011;25686;51.908;10.418;2022-07-17T04:54:08;6.72;;;1.92;;
39994;SDS011;25686;51.908;10.418;2022-07-17T04:56:09;9.10;;;1.70;;
39994;SDS011;25686;51.908;10.418;2022-07-17T04:58:10;9.30;;;1.70;;
39994;SDS011;25686;51.908;10.418;2022-07-17T05:00:11;7.32;;;1.60;;
39994;SDS011;25686;51.908;10.418;2022-07-17T05:02:12;6.57;;;1.80;;
39994;SDS011;25686;51.908;10.418;2022-07-17T05:04:13;7.43;;;1.23;;
39994;SDS011;25686;51.908;10.418;2022-07-17T05:06:14;7.50;;;1.55;;
39994;SDS011;25686;51.908;10.418;2022-07-17T05:08:15;9.63;;;1.77;;
39994;SDS011;25686;51.908;10.418;2022-07-17T05:10:17;7.63;;;1.48;;
39994;SDS011;25686;51.908;10.418;2022-07-17T05:12:18;10.48;;;1.65;;
39994;SDS011;25686;51.908;10.418;2022-07-17T05:14:19;5.97;;;1.52;;
39994;SDS011;25686;51.908;10.418;2022-07-17T05:16:20;6.65;;;2.00;;
39994;SDS011;25686;51.908;10.418;2022-07-17T05:18:21;8.38;;;2.03;;
39994;SDS011;25686;51.908;10.418;2022-07-17T05:20:22;6.88;;;1.52;;
39994;SDS011;25686;51.908;10.418;2022-07-17T05:22:22;8.07;;;1.52;;
39994;SDS011;25686;51.908;10.418;2022-07-17T05:24:23;7.65;;;1.73;;
39994;SDS011;25686;51.908;10.418;2022-07-17T05:26:24;8.73;;;2.00;;
39994;SDS011;25686;51.908;10.418;2022-07-17T05:28:25;6.68;;;1.50;;
39994;SDS011;25686;51.908;10.418;2022-07-17T05:30:26;11.45;;;1.92;;
39994;SDS011;25686;51.908;10.418;2022-07-17T05:32:27;9.05;;;1.73;;
39994;SDS011;25686;51.908;10.418;2022-07-17T05:34:28;12.95;;;1.70;;
39994;SDS011;25686;51.908;10.418;2022-07-17T05:36:29;8.50;;;1.60;;
39994;SDS011;25686;51.908;10.418;2022-07-17T05:38:30;10.27;;;1.33;;
39994;SDS011;25686;51.908;10.418;2022-07-17T05:40:31;6.97;;;1.38;;
39994;SDS011;25686;51.908;10.418;2022-07-17T05:42:32;9.30;;;1.42;;
39994;SDS011;25686;51.908;10.418;2022-07-17T05:44:33;7.88;;;1.50;;
39994;SDS011;25686;51.908;10.418;2022-07-17T05:46:34;11.18;;;1.67;;
39994;SDS011;25686;51.908;10.418;2022-07-17T05:48:34;5.95;;;1.30;;
39994;SDS011;25686;51.908;10.418;2022-07-17T05:50:35;5.63;;;1.30;;
39994;SDS011;25686;51.908;10.418;2022-07-17T05:52:36;5.00;;;1.10;;
39994;SDS011;25686;51.908;10.418;2022-07-17T05:54:37;7.00;;;1.40;;
39994;SDS011;25686;51.908;10.418;2022-07-17T05:56:38;10.23;;;1.70;;
39994;SDS011;25686;51.908;10.418;2022-07-17T05:58:39;8.50;;;1.58;;
39994;SDS011;25686;51.908;10.418;2022-07-17T06:00:40;10.75;;;1.63;;
39994;SDS011;25686;51.908;10.418;2022-07-17T06:02:41;5.82;;;1.40;;
39994;SDS011;25686;51.908;10.418;2022-07-17T06:04:42;7.75;;;1.52;;
39994;SDS011;25686;51.908;10.418;2022-07-17T06:06:43;10.60;;;1.48;;
39994;SDS011;25686;51.908;10.418;2022-07-17T06:08:44;4.35;;;1.20;;
39994;SDS011;25686;51.908;10.418;2022-07-17T06:10:44;7.03;;;1.48;;
39994;SDS011;25686;51.908;10.418;2022-07-17T06:12:45;10.00;;;1.35;;
39994;SDS011;25686;51.908;10.418;2022-07-17T06:14:46;8.05;;;1.20;;
39994;SDS011;25686;51.908;10.418;2022-07-17T06:16:47;7.53;;;1.80;;
39994;SDS011;25686;51.908;10.418;2022-07-17T06:18:48;8.15;;;1.40;;
39994;SDS011;25686;51.908;10.418;2022-07-17T06:20:49;7.30;;;1.40;;
39994;SDS011;25686;51.908;10.418;2022-07-17T06:22:50;7.80;;;1.20;;
39994;SDS011;25686;51.908;10.418;2022-07-17T06:24:51;5.60;;;1.23;;
39994;SDS011;25686;51.908;10.418;2022-07-17T06:26:52;5.32;;;1.33;;
39994;SDS011;25686;51.908;10.418;2022-07-17T06:28:53;5.45;;;1.40;;
39994;SDS011;25686;51.908;10.418;2022-07-17T06:30:54;8.73;;;1.55;;
39994;SDS011;25686;51.908;10.418;2022-07-17T06:32:55;5.70;;;1.27;;
39994;SDS011;25686;51.908;10.418;2022-07-17T06:34:56;9.50;;;1.35;;
39994;SDS011;25686;51.908;10.418;2022-07-17T06:36:57;5.07;;;1.00;;
39994;SDS011;25686;51.908;10.418;2022-07-17T06:38:58;6.35;;;1.30;;
39994;SDS011;25686;51.908;10.418;2022-07-17T06:40:59;6.18;;;1.20;;
39994;SDS011;25686;51.908;10.418;2022-07-17T06:43:00;7.55;;;1.40;;
39994;SDS011;25686;51.908;10.418;2022-07-17T06:45:01;8.30;;;1.45;;
39994;SDS011;25686;51.908;10.418;2022-07-17T06:47:02;5.50;;;1.42;;
39994;SDS011;25686;51.908;10.418;2022-07-17T06:49:03;6.45;;;1.20;;
39994;SDS011;25686;51.908;10.418;2022-07-17T06:51:04;7.97;;;1.40;;
39994;SDS011;25686;51.908;10.418;2022-07-17T06:53:05;6.57;;;1.10;;
39994;SDS011;25686;51.908;10.418;2022-07-17T06:55:06;6.70;;;1.23;;
39994;SDS011;25686;51.908;10.418;2022-07-17T06:57:07;3.80;;;0.90;;
39994;SDS011;25686;51.908;10.418;2022-07-17T06:59:08;4.75;;;1.10;;
39994;SDS011;25686;51.908;10.418;2022-07-17T07:01:09;8.57;;;1.27;;
39994;SDS011;25686;51.908;10.418;2022-07-17T07:03:10;4.75;;;1.45;;
39994;SDS011;25686;51.908;10.418;2022-07-17T07:05:11;6.13;;;1.20;;
39994;SDS011;25686;51.908;10.418;2022-07-17T07:07:12;4.43;;;0.93;;
39994;SDS011;25686;51.908;10.418;2022-07-17T07:09:12;5.72;;;1.15;;
39994;SDS011;25686;51.908;10.418;2022-07-17T07:11:13;3.60;;;0.85;;
39994;SDS011;25686;51.908;10.418;2022-07-17T07:13:14;3.40;;;1.10;;
39994;SDS011;25686;51.908;10.418;2022-07-17T07:15:15;8.25;;;1.30;;
39994;SDS011;25686;51.908;10.418;2022-07-17T07:17:16;7.60;;;1.30;;
39994;SDS011;25686;51.908;10.418;2022-07-17T07:19:17;4.80;;;1.15;;
39994;SDS011;25686;51.908;10.418;2022-07-17T07:21:18;5.88;;;1.40;;
39994;SDS011;25686;51.908;10.418;2022-07-17T07:23:19;7.63;;;1.65;;
39994;SDS011;25686;51.908;10.418;2022-07-17T07:25:20;6.53;;;1.50;;
39994;SDS011;25686;51.908;10.418;2022-07-17T07:27:21;4.78;;;0.73;;
39994;SDS011;25686;51.908;10.418;2022-07-17T07:29:22;5.40;;;1.10;;
39994;SDS011;25686;51.908;10.418;2022-07-17T07:31:23;3.83;;;0.90;;
39994;SDS011;25686;51.908;10.418;2022-07-17T07:33:24;6.07;;;1.20;;
39994;SDS011;25686;51.908;10.418;2022-07-17T07:35:25;5.65;;;1.20;;
39994;SDS011;25686;51.908;10.418;2022-07-17T07:37:26;4.80;;;1.15;;
39994;SDS011;25686;51.908;10.418;2022-07-17T07:39:26;7.68;;;1.27;;
39994;SDS011;25686;51.908;10.418;2022-07-17T07:41:27;11.52;;;1.13;;
39994;SDS011;25686;51.908;10.418;2022-07-17T07:43:28;5.25;;;1.20;;
39994;SDS011;25686;51.908;10.418;2022-07-17T07:45:29;6.97;;;1.25;;
39994;SDS011;25686;51.908;10.418;2022-07-17T07:47:39;4.75;;;1.15;;
39994;SDS011;25686;51.908;10.418;2022-07-17T07:49:40;5.05;;;1.00;;
39994;SDS011;25686;51.908;10.418;2022-07-17T07:51:41;5.97;;;1.20;;
39994;SDS011;25686;51.908;10.418;2022-07-17T07:53:42;5.25;;;1.20;;
39994;SDS011;25686;51.908;10.418;2022-07-17T07:55:43;3.63;;;1.05;;
39994;SDS011;25686;51.908;10.418;2022-07-17T07:57:44;3.92;;;1.00;;
39994;SDS011;25686;51.908;10.418;2022-07-17T07:59:45;5.10;;;1.25;;
39994;SDS011;25686;51.908;10.418;2022-07-17T08:01:46;5.32;;;1.13;;
39994;SDS011;25686;51.908;10.418;2022-07-17T08:03:47;3.50;;;1.13;;
39994;SDS011;25686;51.908;10.418;2022-07-17T08:05:48;5.13;;;1.10;;
39994;SDS011;25686;51.908;10.418;2022-07-17T08:07:49;4.28;;;1.05;;
39994;SDS011;25686;51.908;10.418;2022-07-17T08:09:49;5.70;;;1.00;;
39994;SDS011;25686;51.908;10.418;2022-07-17T08:11:50;2.90;;;1.00;;
39994;SDS011;25686;51.908;10.418;2022-07-17T08:13:51;3.85;;;1.08;;
39994;SDS011;25686;51.908;10.418;2022-07-17T08:15:52;5.57;;;1.10;;
39994;SDS011;25686;51.908;10.418;2022-07-17T08:17:53;2.13;;;0.80;;
39994;SDS011;25686;51.908;10.418;2022-07-17T08:19:54;4.80;;;1.23;;
39994;SDS011;25686;51.908;10.418;2022-07-17T08:21:55;3.47;;;0.95;;
39994;SDS011;25686;51.908;10.418;2022-07-17T08:23:56;2.70;;;1.00;;
39994;SDS011;25686;51.908;10.418;2022-07-17T08:25:57;6.70;;;1.02;;
39994;SDS011;25686;51.908;10.418;2022-07-17T08:27:58;5.03;;;1.58;;
39994;SDS011;25686;51.908;10.418;2022-07-17T08:29:59;4.88;;;1.05;;
39994;SDS011;25686;51.908;10.418;2022-07-17T08:32:01;4.55;;;1.20;;
39994;SDS011;25686;51.908;10.418;2022-07-17T08:34:02;4.15;;;1.00;;
39994;SDS011;25686;51.908;10.418;2022-07-17T08:36:03;6.60;;;1.77;;
39994;SDS011;25686;51.908;10.418;2022-07-17T08:38:04;3.20;;;0.93;;
39994;SDS011;25686;51.908;10.418;2022-07-17T08:40:06;6.20;;;1.20;;
39994;SDS011;25686;51.908;10.418;2022-07-17T08:42:07;5.05;;;1.10;;
39994;SDS011;25686;51.908;10.418;2022-07-17T08:44:08;3.88;;;1.08;;
39994;SDS011;25686;51.908;10.418;2022-07-17T08:46:12;6.55;;;1.30;;
39994;SDS011;25686;51.908;10.418;2022-07-17T08:48:14;6.03;;;1.15;;
39994;SDS011;25686;51.908;10.418;2022-07-17T08:50:15;5.55;;;1.23;;
39994;SDS011;25686;51.908;10.418;2022-07-17T08:52:18;2.97;;;1.00;;
39994;SDS011;25686;51.908;10.418;2022-07-17T08:54:19;5.10;;;1.27;;
39994;SDS011;25686;51.908;10.418;2022-07-17T08:56:22;3.85;;;1.00;;
39994;SDS011;25686;51.908;10.418;2022-07-17T08:58:23;4.45;;;1.10;;
39994;SDS011;25686;51.908;10.418;2022-07-17T09:00:25;2.95;;;1.13;;
39994;SDS011;25686;51.908;10.418;2022-07-17T09:02:26;2.40;;;0.90;;
39994;SDS011;25686;51.908;10.418;2022-07-17T09:04:27;2.70;;;1.10;;
39994;SDS011;25686;51.908;10.418;2022-07-17T09:06:28;4.45;;;0.80;;
39994;SDS011;25686;51.908;10.418;2022-07-17T09:08:28;2.60;;;0.90;;
39994;SDS011;25686;51.908;10.418;2022-07-17T09:10:43;5.13;;;1.20;;
39994;SDS011;25686;51.908;10.418;2022-07-17T09:12:44;3.75;;;1.13;;
39994;SDS011;25686;51.908;10.418;2022-07-17T09:14:45;3.30;;;1.10;;
39994;SDS011;25686;51.908;10.418;2022-07-17T09:16:48;4.47;;;1.10;;
39994;SDS011;25686;51.908;10.418;2022-07-17T09:18:50;4.53;;;1.08;;
39994;SDS011;25686;51.908;10.418;2022-07-17T09:20:55;6.45;;;1.05;;
39994;SDS011;25686;51.908;10.418;2022-07-17T09:22:57;4.55;;;1.20;;
39994;SDS011;25686;51.908;10.418;2022-07-17T09:24:58;3.85;;;1.00;;
39994;SDS011;25686;51.908;10.418;2022-07-17T09:27:00;3.58;;;1.10;;
39994;SDS011;25686;51.908;10.418;2022-07-17T09:29:02;2.13;;;1.20;;
39994;SDS011;25686;51.908;10.418;2022-07-17T09:31:03;3.00;;;1.20;;
39994;SDS011;25686;51.908;10.418;2022-07-17T09:33:07;1.45;;;0.85;;
39994;SDS011;25686;51.908;10.418;2022-07-17T09:35:09;3.55;;;1.10;;
39994;SDS011;25686;51.908;10.418;2022-07-17T09:37:11;3.47;;;1.10;;
39994;SDS011;25686;51.908;10.418;2022-07-17T09:39:12;4.18;;;1.40;;
39994;SDS011;25686;51.908;10.418;2022-07-17T09:41:17;7.03;;;1.08;;
39994;SDS011;25686;51.908;10.418;2022-07-17T09:43:20;3.15;;;1.00;;
39994;SDS011;25686;51.908;10.418;2022-07-17T09:45:20;5.50;;;1.00;;
39994;SDS011;25686;51.908;10.418;2022-07-17T09:47:22;3.10;;;1.02;;
39994;SDS011;25686;51.908;10.418;2022-07-17T09:49:25;6.75;;;1.20;;
39994;SDS011;25686;51.908;10.418;2022-07-17T09:51:34;6.22;;;1.48;;
39994;SDS011;25686;51.908;10.418;2022-07-17T09:53:37;6.43;;;1.00;;
39994;SDS011;25686;51.908;10.418;2022-07-17T09:55:38;3.75;;;1.20;;
39994;SDS011;25686;51.908;10.418;2022-07-17T09:57:41;3.50;;;1.00;;
39994;SDS011;25686;51.908;10.418;2022-07-17T09:59:42;3.72;;;1.30;;
39994;SDS011;25686;51.908;10.418;2022-07-17T10:01:44;2.67;;;1.10;;
39994;SDS011;25686;51.908;10.418;2022-07-17T10:03:45;4.43;;;1.20;;
39994;SDS011;25686;51.908;10.418;2022-07-17T10:05:48;4.28;;;1.20;;
39994;SDS011;25686;51.908;10.418;2022-07-17T10:07:49;2.58;;;0.93;;
39994;SDS011;25686;51.908;10.418;2022-07-17T10:09:50;4.32;;;0.93;;
39994;SDS011;25686;51.908;10.418;2022-07-17T10:11:51;4.15;;;1.13;;
39994;SDS011;25686;51.908;10.418;2022-07-17T10:13:54;3.75;;;1.27;;
39994;SDS011;25686;51.908;10.418;2022-07-17T10:15:55;5.25;;;1.33;;
39994;SDS011;25686;51.908;10.418;2022-07-17T10:18:06;3.05;;;1.20;;
39994;SDS011;25686;51.908;10.418;2022-07-17T10:20:07;4.40;;;1.25;;
39994;SDS011;25686;51.908;10.418;2022-07-17T10:22:10;4.40;;;1.17;;
39994;SDS011;25686;51.908;10.418;2022-07-17T10:24:11;3.45;;;1.10;;
39994;SDS011;25686;51.908;10.418;2022-07-17T10:26:12;3.63;;;1.20;;
39994;SDS011;25686;51.908;10.418;2022-07-17T10:28:14;3.40;;;1.00;;
39994;SDS011;25686;51.908;10.418;2022-07-17T10:30:20;4.28;;;1.20;;
39994;SDS011;25686;51.908;10.418;2022-07-17T10:32:23;4.35;;;1.17;;
39994;SDS011;25686;51.908;10.418;2022-07-17T10:34:37;2.85;;;1.20;;
39994;SDS011;25686;51.908;10.418;2022-07-17T10:36:39;3.38;;;1.05;;
39994;SDS011;25686;51.908;10.418;2022-07-17T10:38:41;1.77;;;1.00;;
39994;SDS011;25686;51.908;10.418;2022-07-17T10:40:42;2.47;;;1.20;;
39994;SDS011;25686;51.908;10.418;2022-07-17T10:44:47;2.80;;;1.15;;
39994;SDS011;25686;51.908;10.418;2022-07-17T10:46:48;3.17;;;1.20;;
39994;SDS011;25686;51.908;10.418;2022-07-17T10:48:49;3.08;;;1.13;;
39994;SDS011;25686;51.908;10.418;2022-07-17T10:50:51;2.78;;;1.10;;
39994;SDS011;25686;51.908;10.418;2022-07-17T10:53:09;2.97;;;1.17;;
39994;SDS011;25686;51.908;10.418;2022-07-17T10:55:18;4.03;;;1.45;;
39994;SDS011;25686;51.908;10.418;2022-07-17T10:57:19;5.47;;;1.30;;
39994;SDS011;25686;51.908;10.418;2022-07-17T10:59:20;2.83;;;1.00;;
39994;SDS011;25686;51.908;10.418;2022-07-17T11:01:21;3.55;;;1.10;;
39994;SDS011;25686;51.908;10.418;2022-07-17T11:03:22;3.47;;;1.27;;
39994;SDS011;25686;51.908;10.418;2022-07-17T11:05:23;4.82;;;1.33;;
39994;SDS011;25686;51.908;10.418;2022-07-17T11:07:24;2.47;;;1.02;;
39994;SDS011;25686;51.908;10.418;2022-07-17T11:09:25;5.75;;;1.27;;
39994;SDS011;25686;51.908;10.418;2022-07-17T11:11:47;4.38;;;1.27;;
39994;SDS011;25686;51.908;10.418;2022-07-17T11:13:50;4.88;;;1.35;;
39994;SDS011;25686;51.908;10.418;2022-07-17T11:15:51;3.70;;;1.10;;
39994;SDS011;25686;51.908;10.418;2022-07-17T11:17:52;3.17;;;1.20;;
39994;SDS011;25686;51.908;10.418;2022-07-17T11:19:53;2.00;;;1.20;;
39994;SDS011;25686;51.908;10.418;2022-07-17T11:21:55;3.10;;;1.08;;
39994;SDS011;25686;51.908;10.418;2022-07-17T11:23:59;3.70;;;1.40;;
39994;SDS011;25686;51.908;10.418;2022-07-17T11:28:01;6.15;;;2.10;;
39994;SDS011;25686;51.908;10.418;2022-07-17T11:30:02;5.88;;;1.50;;
39994;SDS011;25686;51.908;10.418;2022-07-17T11:32:04;3.90;;;1.33;;
39994;SDS011;25686;51.908;10.418;2022-07-17T11:34:06;4.55;;;1.13;;
39994;SDS011;25686;51.908;10.418;2022-07-17T11:36:09;3.97;;;1.13;;
39994;SDS011;25686;51.908;10.418;2022-07-17T11:38:10;2.28;;;1.20;;
39994;SDS011;25686;51.908;10.418;2022-07-17T11:40:11;8.07;;;1.73;;
39994;SDS011;25686;51.908;10.418;2022-07-17T11:42:13;2.47;;;1.05;;
39994;SDS011;25686;51.908;10.418;2022-07-17T11:44:15;2.67;;;1.17;;
39994;SDS011;25686;51.908;10.418;2022-07-17T11:46:17;2.92;;;1.13;;
39994;SDS011;25686;51.908;10.418;2022-07-17T11:48:18;2.65;;;1.00;;
39994;SDS011;25686;51.908;10.418;2022-07-17T11:50:19;4.55;;;1.33;;
39994;SDS011;25686;51.908;10.418;2022-07-17T11:52:20;2.85;;;1.13;;
39994;SDS011;25686;51.908;10.418;2022-07-17T11:54:21;4.35;;;1.30;;
39994;SDS011;25686;51.908;10.418;2022-07-17T11:56:22;3.45;;;1.10;;
39994;SDS011;25686;51.908;10.418;2022-07-17T11:58:23;2.25;;;1.10;;
39994;SDS011;25686;51.908;10.418;2022-07-17T12:00:24;6.07;;;1.20;;
39994;SDS011;25686;51.908;10.418;2022-07-17T12:02:29;3.38;;;1.15;;
39994;SDS011;25686;51.908;10.418;2022-07-17T12:04:34;5.18;;;1.48;;